createdAt,value
2022-12-23T00:01:26.905Z,3.11
2022-12-23T00:04:12.706Z,3.04
2022-12-23T00:06:58.343Z,3.09
2022-12-23T00:09:44.070Z,3.08
2022-12-23T00:12:48.166Z,3.08
2022-12-23T00:15:34.505Z,3.04
2022-12-23T00:18:20.510Z,3.00
2022-12-23T00:21:10.856Z,3.00
2022-12-23T00:23:56.526Z,3.00
2022-12-23T00:26:42.315Z,2.98
2022-12-23T00:29:28.068Z,3.01
2022-12-23T00:32:13.773Z,3.00
2022-12-23T00:34:59.615Z,2.99
2022-12-23T00:37:45.507Z,3.00
2022-12-23T00:40:49.991Z,3.00
2022-12-23T00:43:35.900Z,3.00
2022-12-23T00:46:21.618Z,2.99
2022-12-23T00:49:33.924Z,2.96
2022-12-23T00:52:19.794Z,2.98
2022-12-23T00:55:06.227Z,2.97
2022-12-23T00:57:51.955Z,2.95
2022-12-23T01:00:56.304Z,2.93
2022-12-23T01:04:09.271Z,2.96
2022-12-23T01:06:55.133Z,2.93
2022-12-23T01:09:41.349Z,2.97
2022-12-23T01:12:27.800Z,2.98
2022-12-23T01:15:21.146Z,3.01
2022-12-23T01:18:07.480Z,3.01
2022-12-23T01:20:53.491Z,2.99
2022-12-23T01:23:39.398Z,2.98
2022-12-23T01:26:25.363Z,2.96
2022-12-23T01:29:30.381Z,3.01
2022-12-23T01:32:16.475Z,3.02
2022-12-23T01:35:02.469Z,3.01
2022-12-23T01:37:59.722Z,3.05
2022-12-23T01:40:46.056Z,3.06
2022-12-23T01:44:34.611Z,3.06
2022-12-23T01:47:33.829Z,3.08
2022-12-23T01:50:24.559Z,3.09
2022-12-23T01:53:16.679Z,3.08
2022-12-23T01:56:20.034Z,3.12
2022-12-23T02:00:04.793Z,3.14
2022-12-23T02:03:40.146Z,3.13
2022-12-23T02:10:00.188Z,3.12
2022-12-23T02:12:52.587Z,3.12
2022-12-23T02:16:19.119Z,2.99
2022-12-23T02:19:44.606Z,3.07
2022-12-23T02:22:36.483Z,3.06
2022-12-23T02:25:31.317Z,3.05
2022-12-23T02:28:54.687Z,3.03
2022-12-23T02:32:28.621Z,3.02
2022-12-23T02:35:29.916Z,3.05
2022-12-23T02:38:39.279Z,3.08
2022-12-23T02:42:19.525Z,3.09
2022-12-23T02:45:47.864Z,3.12
2022-12-23T02:48:41.752Z,3.14
2022-12-23T02:51:32.980Z,3.16
2022-12-23T02:54:31.304Z,3.18
2022-12-23T02:57:20.702Z,3.21
2022-12-23T03:00:08.119Z,3.23
2022-12-23T03:02:54.260Z,3.23
2022-12-23T03:05:45.890Z,3.23
2022-12-23T03:08:37.791Z,3.25
2022-12-23T03:12:00.326Z,3.21
2022-12-23T03:15:19.526Z,3.24
2022-12-23T03:18:20.604Z,3.23
2022-12-23T03:21:42.729Z,3.26
2022-12-23T03:24:28.430Z,3.27
2022-12-23T03:27:44.988Z,3.20
2022-12-23T03:30:45.865Z,3.24
2022-12-23T03:33:38.532Z,3.25
2022-12-23T03:37:01.111Z,3.22
2022-12-23T03:40:28.899Z,3.25
2022-12-23T03:43:50.618Z,3.27
2022-12-23T03:47:17.409Z,3.27
2022-12-23T03:50:39.186Z,3.28
2022-12-23T03:54:08.184Z,3.26
2022-12-23T03:56:59.203Z,3.27
2022-12-23T03:59:50.547Z,3.22
2022-12-23T04:02:42.332Z,3.32
2022-12-23T04:05:49.732Z,3.31
2022-12-23T04:09:21.704Z,3.34
2022-12-23T04:12:15.540Z,3.36
2022-12-23T04:15:04.942Z,3.37
2022-12-23T04:17:56.630Z,3.38
2022-12-23T04:20:42.259Z,3.35
2022-12-23T04:23:27.993Z,3.37
2022-12-23T04:26:26.363Z,3.31
2022-12-23T04:29:11.926Z,3.31
2022-12-23T04:32:33.696Z,3.31
2022-12-23T04:35:30.640Z,3.31
2022-12-23T04:38:16.484Z,3.33
2022-12-23T04:41:02.243Z,3.36
2022-12-23T04:43:53.127Z,3.36
2022-12-23T04:46:53.645Z,3.39
2022-12-23T04:49:44.021Z,3.39
2022-12-23T04:52:29.820Z,3.43
2022-12-23T04:55:18.932Z,3.41
2022-12-23T04:58:04.712Z,3.43
2022-12-23T05:00:50.599Z,3.42
2022-12-23T05:03:37.084Z,3.45
2022-12-23T05:06:22.894Z,3.44
2022-12-23T05:09:42.846Z,3.48
2022-12-23T05:12:29.986Z,3.43
2022-12-23T05:15:15.876Z,3.51
2022-12-23T05:18:40.709Z,3.50
2022-12-23T05:21:26.903Z,3.50
2022-12-23T05:24:15.755Z,3.54
2022-12-23T05:27:03.595Z,3.54
2022-12-23T05:29:59.884Z,3.57
2022-12-23T05:32:55.882Z,3.59
2022-12-23T05:35:41.860Z,3.57
2022-12-23T05:38:27.809Z,3.60
2022-12-23T05:41:14.243Z,3.61
2022-12-23T05:43:59.791Z,3.61
2022-12-23T05:46:45.399Z,3.61
2022-12-23T05:49:31.120Z,3.55
2022-12-23T05:52:16.713Z,3.63
2022-12-23T05:55:02.557Z,3.64
2022-12-23T05:57:48.257Z,3.69
2022-12-23T06:00:34.343Z,3.74
2022-12-23T06:03:20.265Z,3.73
2022-12-23T06:06:06.338Z,3.74
2022-12-23T06:08:57.468Z,3.65
2022-12-23T06:11:45.509Z,3.69
2022-12-23T06:14:31.272Z,3.61
2022-12-23T06:17:17.317Z,3.58
2022-12-23T06:20:03.793Z,3.57
2022-12-23T06:22:49.744Z,3.52
2022-12-23T06:25:35.476Z,3.50
2022-12-23T06:28:21.331Z,3.50
2022-12-23T06:31:06.989Z,3.52
2022-12-23T06:33:52.725Z,3.50
2022-12-23T06:36:38.364Z,3.50
2022-12-23T06:39:23.928Z,3.51
2022-12-23T06:42:12.597Z,3.52
2022-12-23T06:44:58.275Z,3.56
2022-12-23T06:47:44.027Z,3.60
2022-12-23T06:50:31.862Z,3.63
2022-12-23T06:53:18.527Z,3.64
2022-12-23T06:56:05.937Z,3.69
2022-12-23T06:58:52.679Z,3.71
2022-12-23T07:01:38.670Z,3.74
2022-12-23T07:04:24.654Z,3.77
2022-12-23T07:07:10.346Z,3.85
2022-12-23T07:09:55.929Z,3.86
2022-12-23T07:12:46.035Z,3.92
2022-12-23T07:15:35.721Z,3.97
2022-12-23T07:18:23.080Z,3.98
2022-12-23T07:21:17.733Z,4.04
2022-12-23T07:24:08.230Z,4.08
2022-12-23T07:26:55.968Z,4.12
2022-12-23T07:29:41.701Z,4.15
2022-12-23T07:32:27.373Z,4.15
2022-12-23T07:35:12.897Z,4.12
2022-12-23T07:37:58.594Z,4.11
2022-12-23T07:40:44.314Z,4.09
2022-12-23T07:43:30.066Z,4.09
2022-12-23T07:46:15.808Z,4.11
2022-12-23T07:49:01.461Z,4.07
2022-12-23T07:51:47.264Z,4.06
2022-12-23T07:54:40.018Z,4.05
2022-12-23T07:57:26.841Z,4.05
2022-12-23T08:00:14.081Z,4.05
2022-12-23T08:03:00.063Z,4.06
2022-12-23T08:05:46.139Z,4.07
2022-12-23T08:08:32.319Z,4.11
2022-12-23T08:11:18.125Z,4.14
2022-12-23T08:14:04.177Z,4.19
2022-12-23T08:16:49.944Z,4.21
2022-12-23T08:19:35.781Z,4.27
2022-12-23T08:22:21.487Z,4.30
2022-12-23T08:25:07.703Z,4.40
2022-12-23T08:27:53.774Z,4.47
2022-12-23T08:30:41.633Z,4.48
2022-12-23T08:33:27.198Z,4.55
2022-12-23T08:36:20.821Z,4.62
2022-12-23T08:39:25.155Z,4.72
2022-12-23T08:42:15.380Z,4.78
2022-12-23T08:45:01.447Z,4.89
2022-12-23T08:47:46.990Z,5.00
2022-12-23T08:50:38.492Z,5.09
2022-12-23T08:53:24.211Z,5.15
2022-12-23T08:56:23.992Z,5.26
2022-12-23T08:59:19.043Z,5.37
2022-12-23T09:02:05.688Z,5.49
2022-12-23T09:04:51.522Z,5.60
2022-12-23T09:07:37.155Z,5.68
2022-12-23T09:10:23.431Z,5.79
2022-12-23T09:13:10.860Z,5.91
2022-12-23T09:15:57.034Z,5.99
2022-12-23T09:18:43.103Z,6.03
2022-12-23T09:21:29.434Z,6.14
2022-12-23T09:24:15.091Z,6.20
2022-12-23T09:27:00.841Z,6.28
2022-12-23T09:29:46.326Z,6.34
2022-12-23T09:32:32.676Z,6.41
2022-12-23T09:35:18.439Z,6.48
2022-12-23T09:38:04.016Z,6.51
2022-12-23T09:40:49.716Z,6.64
2022-12-23T09:44:02.143Z,6.77
2022-12-23T09:46:51.979Z,6.88
2022-12-23T09:49:42.504Z,7.00
2022-12-23T09:52:45.358Z,7.10
2022-12-23T09:55:57.276Z,7.23
2022-12-23T09:58:57.903Z,7.36
2022-12-23T10:01:46.542Z,7.46
2022-12-23T10:04:54.322Z,7.59
2022-12-23T10:07:44.528Z,7.72
2022-12-23T10:10:40.883Z,7.78
2022-12-23T10:13:30.166Z,7.83
2022-12-23T10:16:19.491Z,7.87
2022-12-23T10:19:44.555Z,7.92
2022-12-23T10:22:51.660Z,7.93
2022-12-23T10:25:41.392Z,8.06
2022-12-23T10:28:29.911Z,8.10
2022-12-23T10:34:49.267Z,8.20
2022-12-23T10:37:39.141Z,8.36
2022-12-23T10:41:08.809Z,8.48
2022-12-23T10:44:21.960Z,8.59
2022-12-23T10:47:43.554Z,8.69
2022-12-23T10:50:57.147Z,8.77
2022-12-23T10:54:01.842Z,8.93
2022-12-23T10:56:47.803Z,9.15
2022-12-23T10:59:35.969Z,9.31
2022-12-23T11:02:25.468Z,9.49
2022-12-23T11:05:15.093Z,9.70
2022-12-23T11:08:02.018Z,9.92
2022-12-23T11:10:48.599Z,10.24
2022-12-23T11:13:35.518Z,10.55
2022-12-23T11:16:24.156Z,10.83
2022-12-23T11:19:15.233Z,11.21
2022-12-23T11:22:02.302Z,11.47
2022-12-23T11:24:48.208Z,11.68
2022-12-23T11:27:34.664Z,11.97
2022-12-23T11:30:20.599Z,12.13
2022-12-23T11:33:06.729Z,12.24
2022-12-23T11:36:24.068Z,12.33
2022-12-23T11:39:09.959Z,12.44
2022-12-23T11:42:05.435Z,12.62
2022-12-23T11:44:53.666Z,12.83
2022-12-23T11:47:41.184Z,12.99
2022-12-23T11:50:39.479Z,13.16
2022-12-23T11:53:26.042Z,13.33
2022-12-23T11:56:15.522Z,13.52
2022-12-23T11:59:19.095Z,13.75
2022-12-23T12:02:14.514Z,13.88
2022-12-23T12:05:17.001Z,13.96
2022-12-23T12:08:06.603Z,14.04
2022-12-23T12:10:54.210Z,14.06
2022-12-23T12:13:41.937Z,14.10
2022-12-23T12:16:31.246Z,14.29
2022-12-23T12:19:26.007Z,14.53
2022-12-23T12:22:38.663Z,14.78
2022-12-23T12:25:39.918Z,14.91
2022-12-23T12:28:42.032Z,15.07
2022-12-23T12:31:47.608Z,15.12
2022-12-23T12:35:00.386Z,15.13
2022-12-23T12:37:53.734Z,15.14
2022-12-23T12:40:46.069Z,15.21
2022-12-23T12:43:38.403Z,15.15
2022-12-23T12:46:29.208Z,14.94
2022-12-23T12:49:36.046Z,14.61
2022-12-23T12:52:26.609Z,14.19
2022-12-23T12:55:43.853Z,13.78
2022-12-23T12:58:29.775Z,13.34
2022-12-23T13:06:03.297Z,12.76
2022-12-23T13:09:01.584Z,12.57
2022-12-23T13:12:34.249Z,12.38
2022-12-23T13:15:22.955Z,12.23
2022-12-23T13:18:28.522Z,12.14
2022-12-23T13:21:18.477Z,12.14
2022-12-23T13:24:29.521Z,12.28
2022-12-23T13:27:22.273Z,12.51
2022-12-23T13:30:13.236Z,12.90
2022-12-23T13:33:37.969Z,13.28
2022-12-23T13:36:42.983Z,13.63
2022-12-23T13:40:45.950Z,14.00
2022-12-23T13:43:42.837Z,14.37
2022-12-23T13:47:08.332Z,14.57
2022-12-23T13:50:02.997Z,14.73
2022-12-23T13:52:54.694Z,14.87
2022-12-23T13:55:56.711Z,14.96
2022-12-23T13:58:50.319Z,14.96
2022-12-23T14:01:52.487Z,14.81
2022-12-23T14:05:30.055Z,14.57
2022-12-23T14:08:18.921Z,14.20
2022-12-23T14:11:44.331Z,13.87
2022-12-23T14:15:27.286Z,13.39
2022-12-23T14:19:08.628Z,12.99
2022-12-23T14:23:08.929Z,12.59
2022-12-23T14:26:15.154Z,12.22
2022-12-23T14:29:47.173Z,11.89
2022-12-23T14:33:14.718Z,11.60
2022-12-23T14:36:21.793Z,11.38
2022-12-23T14:39:44.604Z,11.16
2022-12-23T14:42:57.668Z,10.93
2022-12-23T14:45:57.448Z,10.71
2022-12-23T14:49:04.295Z,10.56
2022-12-23T14:52:45.030Z,10.38
2022-12-23T14:55:32.687Z,10.26
2022-12-23T14:58:22.336Z,10.15
2022-12-23T15:01:13.407Z,10.04
2022-12-23T15:04:41.152Z,9.91
2022-12-23T15:08:13.168Z,9.81
2022-12-23T15:10:59.605Z,9.74
2022-12-23T15:13:45.483Z,9.65
2022-12-23T15:16:34.690Z,9.60
2022-12-23T15:19:23.805Z,9.50
2022-12-23T15:22:21.257Z,9.39
2022-12-23T15:25:25.967Z,9.26
2022-12-23T15:28:22.643Z,9.21
2022-12-23T15:31:26.450Z,9.14
2022-12-23T15:34:20.699Z,9.09
2022-12-23T15:37:12.161Z,9.04
2022-12-23T15:40:04.836Z,8.99
2022-12-23T15:42:58.817Z,8.91
2022-12-23T15:45:44.699Z,8.90
2022-12-23T15:48:32.334Z,8.84
2022-12-23T15:52:06.513Z,8.76
2022-12-23T15:54:54.431Z,8.68
2022-12-23T15:57:49.748Z,8.59
2022-12-23T16:00:38.472Z,8.52
2022-12-23T16:03:24.490Z,8.44
2022-12-23T16:06:46.382Z,8.38
2022-12-23T16:09:36.067Z,8.30
2022-12-23T16:12:27.488Z,8.26
2022-12-23T16:15:32.036Z,8.22
2022-12-23T16:18:23.708Z,8.23
2022-12-23T16:21:13.519Z,8.20
2022-12-23T16:23:59.962Z,8.16
2022-12-23T16:26:46.214Z,8.12
2022-12-23T16:29:33.606Z,8.08
2022-12-23T16:32:19.933Z,8.01
2022-12-23T16:35:26.308Z,7.93
2022-12-23T16:38:23.890Z,7.88
2022-12-23T16:41:09.700Z,7.86
2022-12-23T16:43:55.524Z,7.82
2022-12-23T16:46:47.109Z,7.72
2022-12-23T16:49:34.328Z,7.71
2022-12-23T16:52:24.297Z,7.63
2022-12-23T16:55:19.098Z,7.61
2022-12-23T16:58:05.200Z,7.55
2022-12-23T17:00:51.594Z,7.55
2022-12-23T17:03:37.274Z,7.47
2022-12-23T17:06:23.826Z,7.42
2022-12-23T17:09:11.696Z,7.32
2022-12-23T17:11:57.569Z,7.28
2022-12-23T17:14:43.495Z,7.22
2022-12-23T17:17:29.203Z,7.17
2022-12-23T17:20:16.345Z,7.11
2022-12-23T17:23:02.531Z,7.04
2022-12-23T17:25:48.145Z,6.99
2022-12-23T17:28:33.984Z,6.93
2022-12-23T17:31:26.503Z,6.88
2022-12-23T17:34:23.194Z,6.83
2022-12-23T17:37:20.491Z,6.78
2022-12-23T17:40:08.578Z,6.73
2022-12-23T17:42:54.437Z,6.71
2022-12-23T17:45:40.473Z,6.64
2022-12-23T17:48:31.747Z,6.60
2022-12-23T17:51:21.111Z,6.56
2022-12-23T17:54:07.296Z,6.51
2022-12-23T17:56:53.268Z,6.47
2022-12-23T17:59:38.999Z,6.43
2022-12-23T18:02:32.449Z,6.36
2022-12-23T18:05:30.153Z,6.30
2022-12-23T18:08:17.006Z,6.25
2022-12-23T18:11:03.213Z,6.19
2022-12-23T18:13:50.733Z,6.17
2022-12-23T18:16:36.767Z,6.14
2022-12-23T18:19:22.500Z,6.11
2022-12-23T18:22:15.639Z,6.03
2022-12-23T18:25:02.777Z,5.98
2022-12-23T18:27:49.300Z,5.95
2022-12-23T18:30:35.298Z,5.88
2022-12-23T18:33:21.053Z,5.86
2022-12-23T18:36:20.575Z,5.82
2022-12-23T18:39:06.412Z,5.80
2022-12-23T18:41:52.332Z,5.82
2022-12-23T18:44:38.127Z,5.75
2022-12-23T18:47:24.033Z,5.76
2022-12-23T18:50:10.207Z,5.75
2022-12-23T18:52:56.384Z,5.73
2022-12-23T18:55:43.454Z,5.74
2022-12-23T18:58:29.067Z,5.72
2022-12-23T19:01:15.901Z,5.71
2022-12-23T19:04:01.671Z,5.69
2022-12-23T19:06:47.575Z,5.65
2022-12-23T19:09:33.375Z,5.62
2022-12-23T19:12:19.469Z,5.58
2022-12-23T19:15:05.840Z,5.54
2022-12-23T19:17:51.971Z,5.48
2022-12-23T19:20:37.616Z,5.43
2022-12-23T19:23:23.734Z,5.39
2022-12-23T19:26:11.004Z,5.34
2022-12-23T19:28:56.932Z,5.27
2022-12-23T19:31:42.805Z,5.25
2022-12-23T19:34:28.894Z,5.21
2022-12-23T19:37:14.688Z,5.21
2022-12-23T19:40:00.709Z,5.23
2022-12-23T19:42:46.484Z,5.20
2022-12-23T19:45:32.417Z,5.12
2022-12-23T19:48:18.317Z,5.09
2022-12-23T19:51:09.205Z,5.08
2022-12-23T19:53:55.171Z,5.05
2022-12-23T19:56:41.267Z,4.99
2022-12-23T19:59:27.432Z,4.98
2022-12-23T20:02:17.754Z,4.93
2022-12-23T20:05:03.772Z,4.91
2022-12-23T20:07:49.955Z,4.83
2022-12-23T20:10:35.649Z,4.83
2022-12-23T20:13:21.457Z,4.80
2022-12-23T20:16:07.865Z,4.78
2022-12-23T20:18:54.109Z,4.73
2022-12-23T20:21:40.061Z,4.73
2022-12-23T20:24:25.939Z,4.71
2022-12-23T20:27:13.945Z,4.65
2022-12-23T20:30:01.564Z,4.61
2022-12-23T20:32:47.322Z,4.61
2022-12-23T20:35:32.992Z,4.59
2022-12-23T20:38:18.804Z,4.59
2022-12-23T20:41:05.827Z,4.55
2022-12-23T20:44:23.846Z,4.56
2022-12-23T20:46:58.465Z,4.55
2022-12-23T20:49:44.177Z,4.50
2022-12-23T20:52:30.044Z,4.42
2022-12-23T20:55:17.056Z,4.35
2022-12-23T20:58:22.838Z,4.34
2022-12-23T21:01:12.949Z,4.39
2022-12-23T21:04:00.752Z,4.40
2022-12-23T21:06:46.474Z,4.42
2022-12-23T21:09:32.265Z,4.41
2022-12-23T21:12:17.931Z,4.36
2022-12-23T21:15:03.754Z,4.32
2022-12-23T21:17:49.729Z,4.31
2022-12-23T21:20:36.749Z,4.26
2022-12-23T21:23:22.726Z,4.29
2022-12-23T21:26:19.913Z,4.21
2022-12-23T21:29:07.748Z,4.23
2022-12-23T21:31:55.081Z,4.17
2022-12-23T21:34:41.222Z,4.17
2022-12-23T21:37:27.528Z,4.11
2022-12-23T21:40:13.894Z,4.05
2022-12-23T21:43:04.028Z,3.95
2022-12-23T21:46:00.042Z,3.90
2022-12-23T21:48:46.247Z,3.93
2022-12-23T21:51:39.593Z,3.93
2022-12-23T21:54:26.410Z,3.89
2022-12-23T21:57:12.033Z,3.91
2022-12-23T21:59:57.632Z,3.89
2022-12-23T22:02:43.330Z,3.83
2022-12-23T22:05:29.004Z,3.80
2022-12-23T22:08:14.925Z,3.80
2022-12-23T22:11:01.032Z,3.76
2022-12-23T22:13:47.432Z,3.78
2022-12-23T22:16:35.229Z,3.77
2022-12-23T22:19:21.383Z,3.76
2022-12-23T22:22:07.132Z,3.72
2022-12-23T22:24:53.053Z,3.64
2022-12-23T22:27:38.625Z,3.69
2022-12-23T22:30:24.517Z,3.64
2022-12-23T22:33:10.358Z,3.67
2022-12-23T22:35:56.883Z,3.67
2022-12-23T22:38:43.464Z,3.69
2022-12-23T22:41:30.240Z,3.71
2022-12-23T22:44:16.433Z,3.70
2022-12-23T22:47:02.538Z,3.69
2022-12-23T22:49:48.305Z,3.64
2022-12-23T22:52:34.691Z,3.60
2022-12-23T22:55:20.684Z,3.58
2022-12-23T22:58:06.913Z,3.56
2022-12-23T23:00:52.656Z,3.56
2022-12-23T23:03:38.220Z,3.53
2022-12-23T23:06:32.166Z,3.53
2022-12-23T23:09:19.534Z,3.49
2022-12-23T23:12:05.425Z,3.55
2022-12-23T23:14:54.216Z,3.50
2022-12-23T23:17:40.014Z,3.47
2022-12-23T23:20:25.627Z,3.41
2022-12-23T23:23:11.312Z,3.35
2022-12-23T23:25:56.871Z,3.30
2022-12-23T23:28:43.209Z,3.25
2022-12-23T23:31:42.039Z,3.26
2022-12-23T23:34:29.050Z,3.20
2022-12-23T23:37:15.708Z,3.21
2022-12-23T23:40:01.614Z,3.19
2022-12-23T23:42:47.445Z,3.16
2022-12-23T23:45:33.228Z,3.20
2022-12-23T23:48:20.928Z,3.20
2022-12-23T23:51:07.294Z,3.18
2022-12-23T23:53:53.050Z,3.19
2022-12-23T23:56:39.586Z,3.19
2022-12-23T23:59:25.403Z,3.16
